This is the latest recevied weather packets stored in our database for station/object W0BJ. If no packets are shown the sender has not sent any weather packets the latest 10 day(s).
| Time | Temp. | Humidity | Pressure | Rain* | Wind** | Luminosity | Snow |
|---|---|---|---|---|---|---|---|
| 1777579870 | 21.11° C | 31% | 1018.9 hPa | 0 mm | - | - | - |
| 1777579698 | 21.67° C | 33% | 1018.9 hPa | 0 mm | - | - | - |
| 1777579272 | 21.67° C | 34% | 1018.9 hPa | 0 mm | - | - | - |
| 1777578797 | 20.56° C | 32% | 1019 hPa | 0 mm | - | - | - |
| 1777578671 | 20.56° C | 33% | 1018.9 hPa | 0 mm | - | - | - |
| 1777578071 | 21.11° C | 33% | 1019 hPa | 0 mm | - | - | - |
| 1777577901 | 20.56° C | 33% | 1019 hPa | 0 mm | - | - | - |
| 1777577420 | 20.56° C | 33% | 1019.1 hPa | 0 mm | - | - | - |
| 1777576998 | 21.11° C | 34% | 1019.2 hPa | 0 mm | - | - | - |
| 1777576819 | 21.11° C | 33% | 1019.2 hPa | 0 mm | - | - | - |
| 1777576221 | 20.56° C | 31% | 1019.3 hPa | 0 mm | - | - | - |
| 1777576099 | 21.11° C | 33% | 1019.3 hPa | 0 mm | - | - | - |
| 1777575620 | 21.11° C | 33% | 1019.4 hPa | 0 mm | - | - | - |
| 1777575198 | 20.56° C | 34% | 1019.5 hPa | 0 mm | - | - | - |
| 1777575020 | 20.56° C | 33% | 1019.5 hPa | 0 mm | - | - | - |
| 1777574419 | 20.56° C | 34% | 1019.7 hPa | 0 mm | - | - | - |
| 1777574299 | 20.56° C | 34% | 1019.6 hPa | 0 mm | - | - | - |
| 1777573821 | 20.56° C | 36% | 1019.9 hPa | 0 mm | - | - | - |
| 1777573398 | 20° C | 33% | 1020.1 hPa | 0 mm | - | - | - |
| 1777573220 | 20° C | 35% | 1019.9 hPa | 0 mm | - | - | - |
| 1777572620 | 19.44° C | 33% | 1020 hPa | 0 mm | - | - | - |
| 1777572498 | 19.44° C | 32% | 1020 hPa | 0 mm | - | - | - |
| 1777572021 | 20° C | 33% | 1020.4 hPa | 0 mm | - | - | - |
| 1777571599 | 19.44° C | 33% | 1020.4 hPa | 0 mm | - | - | - |
| 1777571420 | 19.44° C | 33% | 1020.5 hPa | 0 mm | - | - | - |
* Rain latest hour (hover to see other rain measurements)
** Current wind speed in m/s (hover to see current wind gust speed)